Purcell, Oklahoma
Current Conditions -  °F | °C
As of 8:15 AM on Thursday 18 Dec 2014 (Local Time) from KOUN Reporting Station
Haze Haze  
Wind Chill: 34°   Ceiling: 400
Heat Index: 37°   Visibility: 3mi
Dew Point: 37°   Wind: 5mph
Humidity: 100%   Direction: 110°ESE
Pressure: 30.16"   Gusts: NA
Location:  35.01°N, 97.36°W
Report Text: KOUN 181415Z AUTO 11004KT 3SM BR OVC004 03/03 A3016 RMK AO2 P0001
Loading
Personal Weather Stations






























Interactive Weather Map New forecast layout! Learn more

10-Day Weather Forecast

Advertisements
Track Severe Weather on mobile